createdAt,value
2019-04-06T00:04:55.812Z,97062.00
2019-04-06T00:10:02.716Z,97064.00
2019-04-06T00:15:09.762Z,97070.00
2019-04-06T00:20:16.340Z,97060.00
2019-04-06T00:25:22.879Z,97072.00
2019-04-06T00:30:32.123Z,97083.00
2019-04-06T00:35:40.148Z,97066.00
2019-04-06T00:40:51.032Z,97058.00
2019-04-06T00:45:58.117Z,97072.00
2019-04-06T00:51:05.087Z,97063.00
2019-04-06T00:56:13.243Z,97066.00
2019-04-06T01:01:19.914Z,97075.00
2019-04-06T01:06:26.772Z,97063.00
2019-04-06T01:11:33.930Z,97079.00
2019-04-06T01:16:41.213Z,97075.00
2019-04-06T01:21:49.234Z,97071.00
2019-04-06T01:26:56.308Z,97083.00
2019-04-06T01:32:03.232Z,97077.00
2019-04-06T01:37:10.418Z,97080.00
2019-04-06T01:42:20.068Z,97090.00
2019-04-06T01:47:28.479Z,97089.00
2019-04-06T01:52:35.608Z,97084.00
2019-04-06T01:57:43.827Z,97089.00
2019-04-06T02:02:52.571Z,97088.00
2019-04-06T02:07:59.238Z,97097.00
2019-04-06T02:13:05.859Z,97082.00
2019-04-06T02:18:12.655Z,97086.00
2019-04-06T02:23:19.123Z,97091.00
2019-04-06T02:28:27.446Z,97085.00
2019-04-06T02:33:51.340Z,97090.00
2019-04-06T02:39:00.637Z,97085.00
2019-04-06T02:44:10.090Z,97086.00
2019-04-06T02:49:18.262Z,97095.00
2019-04-06T02:54:25.288Z,97094.00
2019-04-06T02:59:32.473Z,97089.00
2019-04-06T03:04:39.588Z,97084.00
2019-04-06T03:09:47.612Z,97083.00
2019-04-06T03:14:54.786Z,97081.00
2019-04-06T03:20:02.469Z,97081.00
2019-04-06T03:25:10.763Z,97079.00
2019-04-06T03:30:18.529Z,97073.00
2019-04-06T03:35:25.726Z,97074.00
2019-04-06T03:40:31.704Z,97071.00
2019-04-06T03:45:39.126Z,97079.00
2019-04-06T03:50:47.268Z,97074.00
2019-04-06T03:55:55.504Z,97063.00
2019-04-06T04:01:02.422Z,97072.00
2019-04-06T04:06:09.254Z,97074.00
2019-04-06T04:11:17.275Z,97060.00
2019-04-06T04:16:24.371Z,97079.00
2019-04-06T04:21:30.544Z,97068.00
2019-04-06T04:26:37.651Z,97073.00
2019-04-06T04:31:44.732Z,97071.00
2019-04-06T04:36:51.689Z,97075.00
2019-04-06T04:41:58.621Z,97084.00
2019-04-06T04:47:05.504Z,97077.00
2019-04-06T04:52:12.383Z,97078.00
2019-04-06T04:57:20.935Z,97083.00
2019-04-06T05:02:29.266Z,97077.00
2019-04-06T05:07:36.662Z,97090.00
2019-04-06T05:12:43.253Z,97086.00
2019-04-06T05:18:09.703Z,97080.00
2019-04-06T05:23:20.358Z,97096.00
2019-04-06T05:28:28.917Z,97095.00
2019-04-06T05:33:36.253Z,97108.00
2019-04-06T05:38:42.393Z,97115.00
2019-04-06T05:43:52.059Z,97116.00
2019-04-06T05:48:59.066Z,97131.00
2019-04-06T05:54:06.026Z,97130.00
2019-04-06T05:59:12.945Z,97132.00
2019-04-06T06:04:21.470Z,97136.00
2019-04-06T06:09:29.183Z,97136.00
2019-04-06T06:14:35.299Z,97138.00
2019-04-06T06:19:43.764Z,97135.00
2019-04-06T06:24:50.446Z,97137.00
2019-04-06T06:29:58.018Z,97129.00
2019-04-06T06:35:07.979Z,97136.00
2019-04-06T06:40:16.458Z,97133.00
2019-04-06T06:45:24.935Z,97131.00
2019-04-06T06:50:30.995Z,97127.00
2019-04-06T06:55:39.160Z,97131.00
2019-04-06T07:00:45.895Z,97142.00
2019-04-06T07:05:53.810Z,97137.00
2019-04-06T07:11:00.414Z,97134.00
2019-04-06T07:16:08.218Z,97142.00
2019-04-06T07:21:17.281Z,97135.00
2019-04-06T07:26:24.631Z,97140.00
2019-04-06T07:31:32.586Z,97141.00
2019-04-06T07:36:40.949Z,97146.00
2019-04-06T07:41:51.623Z,97140.00
2019-04-06T07:46:59.378Z,97142.00
2019-04-06T07:52:07.117Z,97143.00
2019-04-06T07:57:14.930Z,97134.00
2019-04-06T08:02:22.970Z,97143.00
2019-04-06T08:07:30.477Z,97139.00
2019-04-06T08:12:39.500Z,97133.00
2019-04-06T08:17:46.465Z,97137.00
2019-04-06T08:22:53.490Z,97139.00
2019-04-06T08:27:59.649Z,97129.00
2019-04-06T08:33:06.255Z,97131.00
2019-04-06T08:38:14.071Z,97131.00
2019-04-06T08:43:21.138Z,97131.00
2019-04-06T08:48:27.144Z,97139.00
2019-04-06T08:53:33.372Z,97135.00
2019-04-06T08:58:40.845Z,97132.00
2019-04-06T09:03:49.146Z,97136.00
2019-04-06T09:08:57.604Z,97130.00
2019-04-06T09:14:07.200Z,97119.00
2019-04-06T09:19:15.682Z,97121.00
2019-04-06T09:24:23.782Z,97115.00
2019-04-06T09:29:31.120Z,97108.00
2019-04-06T09:34:39.834Z,97113.00
2019-04-06T09:39:46.417Z,97106.00
2019-04-06T09:44:57.001Z,97108.00
2019-04-06T09:50:18.969Z,97102.00
2019-04-06T09:55:34.739Z,97092.00
2019-04-06T10:00:58.530Z,97095.00
2019-04-06T10:06:18.030Z,97099.00
2019-04-06T10:11:42.945Z,97090.00
2019-04-06T10:17:07.537Z,97094.00
2019-04-06T10:22:35.838Z,97083.00
2019-04-06T10:27:49.072Z,97084.00
2019-04-06T10:33:10.720Z,97077.00
2019-04-06T10:38:29.505Z,97082.00
2019-04-06T10:43:37.149Z,97075.00
2019-04-06T10:48:45.856Z,97070.00
2019-04-06T10:54:03.685Z,97072.00
2019-04-06T10:59:31.086Z,97068.00
2019-04-06T11:04:47.152Z,97063.00
2019-04-06T11:10:11.162Z,97058.00
2019-04-06T11:15:21.235Z,97048.00
2019-04-06T11:20:29.870Z,97048.00
2019-04-06T11:25:50.371Z,97047.00
2019-04-06T11:31:01.379Z,97047.00
2019-04-06T11:36:12.565Z,97035.00
2019-04-06T11:41:22.747Z,97039.00
2019-04-06T11:46:35.987Z,97016.00
2019-04-06T11:51:43.574Z,97024.00
2019-04-06T11:57:03.467Z,97019.00
2019-04-06T12:02:23.902Z,97020.00
2019-04-06T12:07:35.379Z,97014.00
2019-04-06T12:13:00.195Z,97010.00
2019-04-06T12:18:26.857Z,97000.00
2019-04-06T12:23:34.472Z,96991.00
2019-04-06T12:28:59.565Z,96992.00
2019-04-06T12:34:14.471Z,96993.00
2019-04-06T12:39:51.397Z,96999.00
2019-04-06T12:45:26.210Z,96997.00
2019-04-06T12:50:50.537Z,96991.00
2019-04-06T12:56:18.086Z,96993.00
2019-04-06T13:01:27.739Z,96986.00
2019-04-06T13:06:35.352Z,96998.00
2019-04-06T13:11:56.213Z,97000.00
2019-04-06T13:17:22.731Z,96998.00
2019-04-06T13:22:47.539Z,96997.00
2019-04-06T13:27:56.266Z,96987.00
2019-04-06T13:33:20.437Z,96985.00
2019-04-06T13:38:38.228Z,96986.00
2019-04-06T13:44:03.256Z,96979.00
2019-04-06T13:49:11.378Z,96974.00
2019-04-06T13:54:26.258Z,96978.00
2019-04-06T13:59:42.557Z,96967.00
2019-04-06T14:04:59.702Z,96968.00
2019-04-06T14:10:10.106Z,96965.00
2019-04-06T14:15:19.911Z,96967.00
2019-04-06T14:20:46.276Z,96961.00
2019-04-06T14:25:55.113Z,96952.00
2019-04-06T14:31:12.252Z,96956.00
2019-04-06T14:36:36.654Z,96953.00
2019-04-06T14:41:56.453Z,96965.00
2019-04-06T14:47:20.857Z,96955.00
2019-04-06T14:52:35.425Z,96951.00
2019-04-06T14:58:03.705Z,96952.00
2019-04-06T15:03:12.565Z,96962.00
2019-04-06T15:08:37.798Z,96969.00
2019-04-06T15:13:47.764Z,96984.00
2019-04-06T15:19:11.533Z,96987.00
2019-04-06T15:24:19.988Z,96982.00
2019-04-06T15:29:35.334Z,96978.00
2019-04-06T15:34:51.663Z,96981.00
2019-04-06T15:40:01.398Z,96984.00
2019-04-06T15:45:09.863Z,96987.00
2019-04-06T15:50:24.329Z,96989.00
2019-04-06T15:55:42.099Z,96991.00
2019-04-06T16:00:51.973Z,96987.00
2019-04-06T16:06:01.295Z,96993.00
2019-04-06T16:11:09.756Z,96999.00
2019-04-06T16:16:36.091Z,96988.00
2019-04-06T16:21:50.659Z,97000.00
2019-04-06T16:26:58.993Z,97001.00
2019-04-06T16:32:12.760Z,97001.00
2019-04-06T16:37:36.307Z,97011.00
2019-04-06T16:42:46.033Z,97011.00
2019-04-06T16:47:56.382Z,97011.00
2019-04-06T16:53:11.845Z,97010.00
2019-04-06T16:58:38.904Z,97018.00
2019-04-06T17:04:02.278Z,97028.00
2019-04-06T17:09:15.629Z,97016.00
2019-04-06T17:14:39.307Z,97016.00
2019-04-06T17:20:05.772Z,97015.00
2019-04-06T17:25:25.976Z,97023.00
2019-04-06T17:30:36.318Z,97018.00
2019-04-06T17:36:04.138Z,97021.00
2019-04-06T17:41:13.885Z,97028.00
2019-04-06T17:46:36.868Z,97040.00
2019-04-06T17:51:55.629Z,97044.00
2019-04-06T17:57:10.325Z,97055.00
2019-04-06T18:02:24.621Z,97068.00
2019-04-06T18:07:40.495Z,97085.00
2019-04-06T18:13:06.749Z,97099.00
2019-04-06T18:18:16.308Z,97100.00
2019-04-06T18:23:24.811Z,97108.00
2019-04-06T18:28:34.128Z,97107.00
2019-04-06T18:33:42.360Z,97109.00
2019-04-06T18:38:55.939Z,97105.00
2019-04-06T18:44:05.778Z,97098.00
2019-04-06T18:49:14.536Z,97103.00
2019-04-06T18:54:22.261Z,97100.00
2019-04-06T18:59:32.446Z,97098.00
2019-04-06T19:04:40.677Z,97096.00
2019-04-06T19:09:49.930Z,97094.00
2019-04-06T19:14:57.849Z,97102.00
2019-04-06T19:20:08.085Z,97108.00
2019-04-06T19:25:18.121Z,97100.00
2019-04-06T19:30:27.047Z,97103.00
2019-04-06T19:35:34.668Z,97098.00
2019-04-06T19:40:43.807Z,97098.00
2019-04-06T19:45:52.913Z,97092.00
2019-04-06T19:51:01.168Z,97086.00
2019-04-06T19:56:08.137Z,97085.00
2019-04-06T20:01:16.928Z,97085.00
2019-04-06T20:06:27.143Z,97091.00
2019-04-06T20:11:38.130Z,97078.00
2019-04-06T20:16:46.431Z,97083.00
2019-04-06T20:21:54.714Z,97083.00
2019-04-06T20:27:05.662Z,97083.00
2019-04-06T20:32:14.328Z,97070.00
2019-04-06T20:37:22.151Z,97077.00
2019-04-06T20:42:30.483Z,97075.00
2019-04-06T20:47:37.684Z,97074.00
2019-04-06T20:52:45.999Z,97078.00
2019-04-06T20:57:53.150Z,97073.00
2019-04-06T21:03:05.184Z,97077.00
2019-04-06T21:08:12.176Z,97081.00
2019-04-06T21:13:18.746Z,97074.00
2019-04-06T21:18:26.767Z,97077.00
2019-04-06T21:23:36.611Z,97078.00
2019-04-06T21:28:45.567Z,97082.00
2019-04-06T21:33:53.785Z,97076.00
2019-04-06T21:39:01.567Z,97068.00
2019-04-06T21:44:11.223Z,97070.00
2019-04-06T21:49:19.003Z,97078.00
2019-04-06T21:54:26.590Z,97073.00
2019-04-06T21:59:35.614Z,97058.00
2019-04-06T22:04:42.951Z,97064.00
2019-04-06T22:09:50.462Z,97066.00
2019-04-06T22:14:58.131Z,97067.00
2019-04-06T22:20:05.205Z,97065.00
2019-04-06T22:25:12.221Z,97057.00
2019-04-06T22:30:19.929Z,97046.00
2019-04-06T22:35:27.068Z,97048.00
2019-04-06T22:40:34.871Z,97058.00
2019-04-06T22:45:43.730Z,97042.00
2019-04-06T23:09:11.008Z,97036.00
2019-04-06T23:14:18.248Z,97042.00
2019-04-06T23:19:27.117Z,97042.00
2019-04-06T23:24:34.987Z,97033.00
2019-04-06T23:29:41.894Z,97030.00
2019-04-06T23:34:57.778Z,97033.00
2019-04-06T23:39:59.072Z,97031.00
2019-04-06T23:45:08.252Z,97033.00
2019-04-06T23:50:17.869Z,97026.00
2019-04-06T23:55:26.188Z,97041.00
